createdAt,value
2018-05-12T00:02:11.011Z,16.30
2018-05-12T00:06:13.553Z,17.47
2018-05-12T00:10:16.088Z,19.73
2018-05-12T00:14:18.605Z,17.60
2018-05-12T00:18:21.905Z,18.90
2018-05-12T00:22:25.203Z,16.23
2018-05-12T00:26:27.773Z,20.33
2018-05-12T00:30:30.318Z,19.00
2018-05-12T00:34:32.835Z,16.37
2018-05-12T00:38:35.370Z,16.90
2018-05-12T00:42:37.907Z,26.70
2018-05-12T00:46:40.456Z,18.47
2018-05-12T00:50:42.992Z,17.13
2018-05-12T00:54:45.508Z,20.07
2018-05-12T00:58:48.039Z,22.53
2018-05-12T01:02:50.583Z,18.77
2018-05-12T01:06:53.115Z,18.87
2018-05-12T01:10:55.647Z,25.33
2018-05-12T01:14:58.169Z,22.40
2018-05-12T01:19:00.716Z,20.10
2018-05-12T01:23:09.157Z,19.57
2018-05-12T01:27:11.709Z,22.27
2018-05-12T01:31:14.249Z,23.90
2018-05-12T01:35:16.795Z,20.03
2018-05-12T01:39:19.308Z,19.77
2018-05-12T01:43:21.831Z,23.43
2018-05-12T01:47:24.370Z,19.60
2018-05-12T01:51:26.912Z,19.10
2018-05-12T01:55:30.214Z,21.37
2018-05-12T01:59:33.496Z,22.40
2018-05-12T02:03:36.080Z,19.10
2018-05-12T02:07:39.395Z,18.53
2018-05-12T02:11:42.700Z,19.97
2018-05-12T02:15:46.001Z,24.07
2018-05-12T02:19:49.279Z,18.97
2018-05-12T02:23:51.819Z,19.50
2018-05-12T02:27:54.347Z,18.93
2018-05-12T02:31:56.878Z,21.13
2018-05-12T02:35:59.411Z,20.43
2018-05-12T02:40:01.927Z,22.60
2018-05-12T02:44:05.231Z,21.57
2018-05-12T02:48:08.535Z,19.33
2018-05-12T02:52:11.831Z,18.60
2018-05-12T02:56:14.405Z,16.87
2018-05-12T03:00:17.744Z,19.30
2018-05-12T03:04:20.286Z,18.13
2018-05-12T03:08:22.818Z,18.37
2018-05-12T03:12:25.353Z,21.10
2018-05-12T03:16:27.896Z,17.63
2018-05-12T03:20:30.424Z,19.60
2018-05-12T03:24:32.960Z,18.93
2018-05-12T03:28:35.528Z,20.13
2018-05-12T03:32:38.831Z,22.93
2018-05-12T03:36:42.137Z,18.63
2018-05-12T03:40:45.416Z,18.33
2018-05-12T03:44:47.952Z,22.57
2018-05-12T03:48:50.491Z,18.93
2018-05-12T03:52:53.800Z,18.10
2018-05-12T03:56:57.100Z,17.63
2018-05-12T04:01:00.399Z,22.63
2018-05-12T04:05:15.663Z,20.27
2018-05-12T04:09:29.946Z,20.37
2018-05-12T04:13:34.072Z,17.37
2018-05-12T04:17:37.370Z,21.73
2018-05-12T04:21:40.667Z,18.13
2018-05-12T04:25:43.188Z,19.20
2018-05-12T04:29:45.720Z,17.63
2018-05-12T04:33:48.260Z,22.33
2018-05-12T04:37:50.797Z,18.93
2018-05-12T04:41:53.355Z,18.07
2018-05-12T04:45:55.870Z,18.03
2018-05-12T04:49:58.444Z,16.57
2018-05-12T04:54:00.980Z,17.73
2018-05-12T04:58:03.523Z,16.90
2018-05-12T05:02:06.052Z,20.03
2018-05-12T05:06:08.572Z,18.60
2018-05-12T05:10:11.110Z,18.33
2018-05-12T05:14:14.415Z,19.80
2018-05-12T05:18:16.948Z,18.33
2018-05-12T05:22:19.488Z,21.17
2018-05-12T05:26:22.014Z,16.70
2018-05-12T05:30:24.553Z,17.53
2018-05-12T05:34:27.102Z,17.93
2018-05-12T05:38:29.643Z,17.70
2018-05-12T05:42:32.204Z,19.00
2018-05-12T05:46:35.486Z,19.30
2018-05-12T05:50:38.797Z,18.90
2018-05-12T05:54:42.100Z,20.80
2018-05-12T05:58:45.400Z,19.90
2018-05-12T06:02:47.947Z,22.63
2018-05-12T06:06:50.483Z,16.83
2018-05-12T06:10:53.036Z,17.70
2018-05-12T06:14:55.570Z,20.63
2018-05-12T06:18:58.119Z,19.33
2018-05-12T06:23:01.414Z,21.47
2018-05-12T06:27:03.928Z,17.83
2018-05-12T06:31:06.461Z,19.33
2018-05-12T06:35:08.996Z,20.07
2018-05-12T06:39:11.530Z,19.97
2018-05-12T06:43:14.081Z,20.77
2018-05-12T06:47:16.602Z,19.57
2018-05-12T06:51:19.144Z,17.73
2018-05-12T06:55:21.676Z,19.80
2018-05-12T06:59:24.212Z,17.03
2018-05-12T07:03:26.743Z,16.63
2018-05-12T07:07:29.265Z,16.27
2018-05-12T07:11:32.572Z,16.43
2018-05-12T07:15:35.108Z,15.27
2018-05-12T07:19:37.664Z,14.83
2018-05-12T07:23:40.228Z,13.83
2018-05-12T07:27:43.528Z,14.07
2018-05-12T07:31:47.167Z,13.73
2018-05-12T07:35:49.747Z,14.70
2018-05-12T07:39:52.294Z,20.47
2018-05-12T07:43:54.829Z,16.63
2018-05-12T07:47:57.385Z,15.57
2018-05-12T07:51:59.899Z,15.67
2018-05-12T07:56:02.439Z,15.13
2018-05-12T08:00:05.971Z,17.37
2018-05-12T08:04:08.599Z,18.03
2018-05-12T08:08:11.161Z,15.27
2018-05-12T08:12:14.634Z,12.70
2018-05-12T08:16:18.223Z,18.90
2018-05-12T08:20:21.545Z,13.23
2018-05-12T08:24:24.097Z,11.20
2018-05-12T08:28:26.639Z,13.30
2018-05-12T08:32:29.151Z,12.07
2018-05-12T08:36:31.684Z,12.87
2018-05-12T08:40:34.255Z,16.37
2018-05-12T08:44:36.776Z,10.73
2018-05-12T08:48:39.312Z,14.57
2018-05-12T08:52:43.377Z,15.87
2018-05-12T08:56:45.920Z,14.20
2018-05-12T09:00:48.460Z,11.70
2018-05-12T09:04:50.996Z,11.37
2018-05-12T09:08:54.323Z,12.80
2018-05-12T09:12:56.855Z,12.07
2018-05-12T09:16:59.379Z,11.97
2018-05-12T09:21:01.920Z,12.60
2018-05-12T09:25:04.451Z,11.87
2018-05-12T09:29:07.748Z,12.57
2018-05-12T09:33:10.264Z,11.43
2018-05-12T09:37:12.867Z,21.87
2018-05-12T09:41:16.136Z,11.97
2018-05-12T09:45:19.437Z,11.97
2018-05-12T09:49:22.768Z,11.70
2018-05-12T09:53:25.288Z,13.93
2018-05-12T09:57:27.830Z,10.83
2018-05-12T10:01:30.369Z,11.33
2018-05-12T10:05:32.900Z,10.30
2018-05-12T10:09:35.467Z,12.80
2018-05-12T10:13:38.759Z,10.47
2018-05-12T10:17:42.063Z,10.97
2018-05-12T10:21:45.370Z,11.00
2018-05-12T10:25:47.910Z,9.97
2018-05-12T10:29:50.441Z,9.17
2018-05-12T10:33:53.745Z,12.10
2018-05-12T10:43:03.048Z,8.63
2018-05-12T10:47:05.587Z,14.83
2018-05-12T10:51:08.131Z,9.33
2018-05-12T10:55:10.680Z,13.57
2018-05-12T10:59:13.247Z,17.40
2018-05-12T11:03:16.537Z,12.77
2018-05-12T11:07:19.069Z,11.30
2018-05-12T11:11:21.609Z,14.30
2018-05-12T11:15:24.152Z,14.07
2018-05-12T11:19:26.701Z,9.80
2018-05-12T11:23:29.975Z,10.17
2018-05-12T11:27:32.521Z,10.57
2018-05-12T11:31:35.052Z,10.27
2018-05-12T11:35:37.584Z,10.93
2018-05-12T11:39:40.119Z,10.47
2018-05-12T11:43:42.644Z,12.67
2018-05-12T11:47:45.189Z,8.47
2018-05-12T11:51:47.727Z,11.60
2018-05-12T11:55:50.251Z,12.90
2018-05-12T11:59:52.783Z,10.33
2018-05-12T12:03:55.298Z,10.73
2018-05-12T12:07:57.839Z,9.53
2018-05-12T12:12:01.159Z,9.13
2018-05-12T12:16:03.712Z,8.23
2018-05-12T12:20:07.010Z,9.20
2018-05-12T12:24:09.519Z,7.83
2018-05-12T12:28:12.258Z,7.70
2018-05-12T12:32:14.788Z,8.63
2018-05-12T12:36:18.083Z,8.77
2018-05-12T12:40:21.389Z,8.03
2018-05-12T12:44:25.415Z,9.40
2018-05-12T12:48:28.714Z,8.57
2018-05-12T12:52:32.012Z,10.37
2018-05-12T12:56:35.306Z,7.50
2018-05-12T13:00:38.599Z,7.30
2018-05-12T13:04:41.130Z,7.40
2018-05-12T13:08:43.648Z,30.27
2018-05-12T13:12:46.979Z,11.23
2018-05-12T13:16:49.516Z,7.17
2018-05-12T13:20:52.070Z,8.47
2018-05-12T13:24:54.611Z,12.17
2018-05-12T13:28:57.123Z,11.00
2018-05-12T13:32:59.647Z,17.90
2018-05-12T13:37:02.177Z,12.30
2018-05-12T13:41:04.716Z,49.93
2018-05-12T13:45:07.249Z,12.40
2018-05-12T13:49:09.759Z,10.70
2018-05-12T13:53:13.064Z,11.00
2018-05-12T13:57:15.603Z,12.40
2018-05-12T14:01:18.136Z,12.10
2018-05-12T14:05:20.666Z,11.47
2018-05-12T14:09:23.188Z,12.90
2018-05-12T14:13:26.492Z,11.60
2018-05-12T14:17:29.791Z,12.43
2018-05-12T14:21:33.360Z,11.80
2018-05-12T14:25:35.928Z,12.37
2018-05-12T14:29:38.452Z,10.77
2018-05-12T14:33:40.984Z,13.47
2018-05-12T14:37:43.529Z,11.70
2018-05-12T14:41:46.067Z,12.93
2018-05-12T14:45:49.375Z,12.53
2018-05-12T14:49:51.891Z,14.37
2018-05-12T14:53:54.423Z,12.43
2018-05-12T14:57:56.955Z,12.00
2018-05-12T15:01:59.536Z,12.67
2018-05-12T15:06:02.044Z,12.13
2018-05-12T15:10:04.580Z,12.43
2018-05-12T15:14:07.123Z,13.67
2018-05-12T15:18:09.671Z,12.27
2018-05-12T15:22:12.212Z,14.13
2018-05-12T15:26:15.512Z,14.90
2018-05-12T15:30:18.055Z,14.87
2018-05-12T15:34:20.583Z,14.60
2018-05-12T15:38:23.127Z,14.17
2018-05-12T15:42:25.787Z,15.50
2018-05-12T15:46:28.328Z,15.60
2018-05-12T15:50:31.631Z,18.53
2018-05-12T15:54:34.919Z,16.43
2018-05-12T15:58:37.455Z,18.47
2018-05-12T16:02:40.001Z,18.53
2018-05-12T16:06:43.311Z,17.57
2018-05-12T16:10:45.851Z,18.10
2018-05-12T16:14:48.456Z,18.53
2018-05-12T16:18:53.712Z,18.73
2018-05-12T16:22:56.310Z,19.80
2018-05-12T16:26:58.844Z,19.60
2018-05-12T16:31:01.388Z,20.73
2018-05-12T16:35:04.689Z,19.87
2018-05-12T16:39:07.243Z,20.77
2018-05-12T16:43:09.782Z,20.47
2018-05-12T16:47:12.331Z,20.17
2018-05-12T16:51:15.764Z,20.60
2018-05-12T16:55:18.287Z,21.13
2018-05-12T16:59:20.847Z,20.40
2018-05-12T17:03:23.387Z,21.23
2018-05-12T17:07:25.928Z,19.73
2018-05-12T17:11:28.474Z,21.73
2018-05-12T17:15:31.755Z,19.97
2018-05-12T17:19:34.295Z,20.67
2018-05-12T17:23:36.831Z,20.27
2018-05-12T17:27:40.139Z,22.00
2018-05-12T17:31:43.435Z,26.23
2018-05-12T17:35:45.955Z,21.43
2018-05-12T17:39:48.491Z,22.43
2018-05-12T17:43:51.036Z,21.50
2018-05-12T17:47:53.596Z,21.50
2018-05-12T17:51:56.134Z,21.83
2018-05-12T17:55:58.651Z,21.60
2018-05-12T18:00:01.959Z,22.80
2018-05-12T18:04:05.260Z,21.13
2018-05-12T18:08:08.578Z,22.70
2018-05-12T18:12:11.115Z,21.03
2018-05-12T18:16:13.657Z,20.17
2018-05-12T18:20:16.187Z,21.07
2018-05-12T18:24:18.728Z,21.73
2018-05-12T18:28:21.268Z,21.07
2018-05-12T18:32:23.800Z,20.73
2018-05-12T18:36:26.341Z,21.80
2018-05-12T18:40:28.861Z,20.90
2018-05-12T18:44:31.400Z,23.03
2018-05-12T18:48:33.950Z,21.20
2018-05-12T18:52:36.488Z,22.67
2018-05-12T18:56:39.110Z,22.77
2018-05-12T19:00:42.860Z,22.97
2018-05-12T19:04:45.418Z,22.83
2018-05-12T19:08:47.964Z,24.10
2018-05-12T19:12:51.347Z,22.30
2018-05-12T19:16:53.913Z,24.63
2018-05-12T19:20:56.464Z,23.17
2018-05-12T19:24:59.035Z,22.77
2018-05-12T19:29:02.359Z,25.37
2018-05-12T19:33:04.921Z,26.70
2018-05-12T19:37:08.256Z,23.87
2018-05-12T19:41:10.777Z,24.13
2018-05-12T19:45:13.328Z,24.33
2018-05-12T19:49:15.891Z,24.07
2018-05-12T19:53:18.431Z,26.33
2018-05-12T19:57:20.976Z,25.80
2018-05-12T20:01:23.505Z,26.23
2018-05-12T20:05:26.046Z,26.57
2018-05-12T20:09:28.582Z,26.90
2018-05-12T20:13:31.119Z,25.47
2018-05-12T20:17:33.671Z,25.13
2018-05-12T20:21:36.210Z,23.97
2018-05-12T20:25:38.776Z,23.70
2018-05-12T20:29:41.304Z,22.97
2018-05-12T20:33:43.855Z,28.50
2018-05-12T20:37:46.387Z,24.93
2018-05-12T20:41:49.680Z,24.85
2018-05-12T20:45:52.211Z,24.17
2018-05-12T20:49:55.512Z,22.77
2018-05-12T20:53:58.047Z,23.57
2018-05-12T20:58:00.608Z,23.43
2018-05-12T21:02:03.200Z,22.60
2018-05-12T21:06:05.707Z,22.53
2018-05-12T21:10:08.248Z,21.30
2018-05-12T21:14:10.861Z,23.20
2018-05-12T21:18:13.357Z,21.93
2018-05-12T21:22:15.890Z,21.80
2018-05-12T21:26:18.418Z,23.17
2018-05-12T21:30:21.903Z,27.33
2018-05-12T21:34:24.471Z,23.27
2018-05-12T21:38:27.019Z,25.07
2018-05-12T21:42:30.320Z,25.37
2018-05-12T21:46:32.868Z,24.23
2018-05-12T21:50:35.403Z,26.53
2018-05-12T21:54:38.704Z,26.90
2018-05-12T21:58:42.007Z,28.83
2018-05-12T22:02:44.551Z,25.70
2018-05-12T22:06:47.074Z,26.57
2018-05-12T22:10:50.383Z,26.27
2018-05-12T22:14:53.689Z,25.90
2018-05-12T22:18:56.995Z,26.97
2018-05-12T22:22:59.536Z,28.93
2018-05-12T22:27:02.052Z,29.73
2018-05-12T22:31:05.351Z,27.40
2018-05-12T22:35:08.651Z,27.53
2018-05-12T22:39:11.961Z,29.10
2018-05-12T22:43:14.496Z,27.53
2018-05-12T22:47:17.062Z,33.30
2018-05-12T22:51:20.323Z,31.00
2018-05-12T22:55:23.625Z,26.30
2018-05-12T22:59:26.954Z,26.17
2018-05-12T23:03:29.493Z,25.20
2018-05-12T23:07:32.017Z,25.77
2018-05-12T23:11:34.547Z,24.97
2018-05-12T23:15:37.083Z,26.60
2018-05-12T23:19:40.392Z,28.33
2018-05-12T23:23:42.955Z,25.33
2018-05-12T23:27:46.244Z,28.43
2018-05-12T23:31:48.783Z,26.60
2018-05-12T23:35:51.319Z,28.07
2018-05-12T23:39:53.867Z,26.67
2018-05-12T23:43:56.410Z,25.37
2018-05-12T23:47:59.720Z,30.20
2018-05-12T23:52:02.235Z,27.93
2018-05-12T23:56:04.768Z,26.80
